sensor_id;sensor_type;location;lat;lon;timestamp;P1;durP1;ratioP1;P2;durP2;ratioP2
36353;SDS011;22383;51.114;13.666;2023-02-12T00:01:37;7.00;;;4.57;;
36353;SDS011;22383;51.114;13.666;2023-02-12T00:04:04;10.23;;;5.50;;
36353;SDS011;22383;51.114;13.666;2023-02-12T00:06:32;5.90;;;5.20;;
36353;SDS011;22383;51.114;13.666;2023-02-12T00:08:59;15.63;;;6.07;;
36353;SDS011;22383;51.114;13.666;2023-02-12T00:11:29;6.25;;;4.30;;
36353;SDS011;22383;51.114;13.666;2023-02-12T00:13:56;10.65;;;4.60;;
36353;SDS011;22383;51.114;13.666;2023-02-12T00:16:25;5.95;;;3.67;;
36353;SDS011;22383;51.114;13.666;2023-02-12T00:18:54;4.00;;;3.58;;
36353;SDS011;22383;51.114;13.666;2023-02-12T00:21:25;7.25;;;6.03;;
36353;SDS011;22383;51.114;13.666;2023-02-12T00:23:55;16.95;;;5.65;;
36353;SDS011;22383;51.114;13.666;2023-02-12T00:26:22;9.60;;;5.20;;
36353;SDS011;22383;51.114;13.666;2023-02-12T00:28:50;10.50;;;4.35;;
36353;SDS011;22383;51.114;13.666;2023-02-12T00:31:28;7.85;;;6.57;;
36353;SDS011;22383;51.114;13.666;2023-02-12T00:33:57;6.50;;;3.83;;
36353;SDS011;22383;51.114;13.666;2023-02-12T00:36:27;10.18;;;5.65;;
36353;SDS011;22383;51.114;13.666;2023-02-12T00:38:58;7.63;;;5.47;;
36353;SDS011;22383;51.114;13.666;2023-02-12T00:41:28;15.60;;;7.10;;
36353;SDS011;22383;51.114;13.666;2023-02-12T00:43:56;13.23;;;5.57;;
36353;SDS011;22383;51.114;13.666;2023-02-12T00:46:33;7.22;;;4.30;;
36353;SDS011;22383;51.114;13.666;2023-02-12T00:49:06;5.80;;;5.18;;
36353;SDS011;22383;51.114;13.666;2023-02-12T00:51:43;15.80;;;5.65;;
36353;SDS011;22383;51.114;13.666;2023-02-12T00:54:11;14.88;;;6.18;;
36353;SDS011;22383;51.114;13.666;2023-02-12T00:56:38;10.40;;;6.45;;
36353;SDS011;22383;51.114;13.666;2023-02-12T00:59:06;8.60;;;6.07;;
36353;SDS011;22383;51.114;13.666;2023-02-12T01:01:34;6.35;;;3.78;;
36353;SDS011;22383;51.114;13.666;2023-02-12T01:04:02;4.50;;;3.95;;
36353;SDS011;22383;51.114;13.666;2023-02-12T01:06:38;6.13;;;5.53;;
36353;SDS011;22383;51.114;13.666;2023-02-12T01:09:11;9.70;;;4.80;;
36353;SDS011;22383;51.114;13.666;2023-02-12T01:11:44;3.67;;;3.38;;
36353;SDS011;22383;51.114;13.666;2023-02-12T01:14:15;5.13;;;4.70;;
36353;SDS011;22383;51.114;13.666;2023-02-12T01:16:45;9.82;;;6.30;;
36353;SDS011;22383;51.114;13.666;2023-02-12T01:19:18;9.25;;;5.60;;
36353;SDS011;22383;51.114;13.666;2023-02-12T01:21:49;5.43;;;4.45;;
36353;SDS011;22383;51.114;13.666;2023-02-12T01:24:17;11.23;;;3.97;;
36353;SDS011;22383;51.114;13.666;2023-02-12T01:26:47;15.82;;;6.68;;
36353;SDS011;22383;51.114;13.666;2023-02-12T01:29:17;5.65;;;5.10;;
36353;SDS011;22383;51.114;13.666;2023-02-12T01:31:47;15.15;;;7.20;;
36353;SDS011;22383;51.114;13.666;2023-02-12T01:34:16;19.35;;;7.65;;
36353;SDS011;22383;51.114;13.666;2023-02-12T01:36:43;6.80;;;2.80;;
36353;SDS011;22383;51.114;13.666;2023-02-12T01:39:10;4.72;;;4.35;;
36353;SDS011;22383;51.114;13.666;2023-02-12T01:41:40;11.10;;;6.68;;
36353;SDS011;22383;51.114;13.666;2023-02-12T01:44:16;3.78;;;3.20;;
36353;SDS011;22383;51.114;13.666;2023-02-12T01:46:58;14.43;;;5.97;;
36353;SDS011;22383;51.114;13.666;2023-02-12T01:49:35;6.30;;;4.70;;
36353;SDS011;22383;51.114;13.666;2023-02-12T01:52:19;6.68;;;4.90;;
36353;SDS011;22383;51.114;13.666;2023-02-12T01:54:51;17.58;;;6.30;;
36353;SDS011;22383;51.114;13.666;2023-02-12T01:57:23;12.50;;;7.05;;
36353;SDS011;22383;51.114;13.666;2023-02-12T01:59:55;7.35;;;5.55;;
36353;SDS011;22383;51.114;13.666;2023-02-12T02:02:24;11.00;;;4.32;;
36353;SDS011;22383;51.114;13.666;2023-02-12T02:07:23;6.57;;;4.72;;
36353;SDS011;22383;51.114;13.666;2023-02-12T02:09:50;6.13;;;5.65;;
36353;SDS011;22383;51.114;13.666;2023-02-12T02:12:18;7.80;;;4.85;;
36353;SDS011;22383;51.114;13.666;2023-02-12T02:15:04;10.93;;;6.35;;
36353;SDS011;22383;51.114;13.666;2023-02-12T02:17:34;9.65;;;5.50;;
36353;SDS011;22383;51.114;13.666;2023-02-12T02:23:09;7.25;;;6.57;;
36353;SDS011;22383;51.114;13.666;2023-02-12T02:28:58;6.88;;;5.18;;
36353;SDS011;22383;51.114;13.666;2023-02-12T02:31:38;9.75;;;5.28;;
36353;SDS011;22383;51.114;13.666;2023-02-12T02:34:10;3.88;;;3.50;;
36353;SDS011;22383;51.114;13.666;2023-02-12T02:36:59;11.35;;;7.32;;
36353;SDS011;22383;51.114;13.666;2023-02-12T02:39:38;5.20;;;4.70;;
36353;SDS011;22383;51.114;13.666;2023-02-12T02:42:15;7.43;;;4.90;;
36353;SDS011;22383;51.114;13.666;2023-02-12T02:44:52;10.32;;;5.22;;
36353;SDS011;22383;51.114;13.666;2023-02-12T02:47:23;9.85;;;4.38;;
36353;SDS011;22383;51.114;13.666;2023-02-12T02:49:59;25.83;;;5.75;;
36353;SDS011;22383;51.114;13.666;2023-02-12T02:52:34;11.35;;;6.30;;
36353;SDS011;22383;51.114;13.666;2023-02-12T02:55:17;10.97;;;5.80;;
36353;SDS011;22383;51.114;13.666;2023-02-12T02:57:47;3.30;;;3.03;;
36353;SDS011;22383;51.114;13.666;2023-02-12T03:00:26;21.70;;;6.65;;
36353;SDS011;22383;51.114;13.666;2023-02-12T03:03:11;6.45;;;4.85;;
36353;SDS011;22383;51.114;13.666;2023-02-12T03:05:52;1.80;;;1.73;;
36353;SDS011;22383;51.114;13.666;2023-02-12T03:08:25;6.07;;;5.05;;
36353;SDS011;22383;51.114;13.666;2023-02-12T03:11:02;4.65;;;4.20;;
36353;SDS011;22383;51.114;13.666;2023-02-12T03:13:47;7.18;;;4.53;;
36353;SDS011;22383;51.114;13.666;2023-02-12T03:19:17;4.43;;;4.03;;
36353;SDS011;22383;51.114;13.666;2023-02-12T03:22:01;9.65;;;5.30;;
36353;SDS011;22383;51.114;13.666;2023-02-12T03:24:49;11.77;;;6.00;;
36353;SDS011;22383;51.114;13.666;2023-02-12T03:27:32;9.43;;;5.35;;
36353;SDS011;22383;51.114;13.666;2023-02-12T03:30:07;17.48;;;6.78;;
36353;SDS011;22383;51.114;13.666;2023-02-12T03:32:37;6.28;;;3.30;;
36353;SDS011;22383;51.114;13.666;2023-02-12T03:37:57;9.82;;;5.25;;
36353;SDS011;22383;51.114;13.666;2023-02-12T03:40:42;6.05;;;5.45;;
36353;SDS011;22383;51.114;13.666;2023-02-12T03:46:05;18.73;;;5.85;;
36353;SDS011;22383;51.114;13.666;2023-02-12T03:48:51;7.78;;;4.57;;
36353;SDS011;22383;51.114;13.666;2023-02-12T03:51:28;7.70;;;6.70;;
36353;SDS011;22383;51.114;13.666;2023-02-12T03:54:03;3.65;;;3.35;;
36353;SDS011;22383;51.114;13.666;2023-02-12T03:59:09;11.48;;;6.80;;
36353;SDS011;22383;51.114;13.666;2023-02-12T04:04:05;26.83;;;8.90;;
36353;SDS011;22383;51.114;13.666;2023-02-12T04:06:33;5.90;;;5.10;;
36353;SDS011;22383;51.114;13.666;2023-02-12T04:09:02;6.88;;;6.25;;
36353;SDS011;22383;51.114;13.666;2023-02-12T04:11:43;17.67;;;6.13;;
36353;SDS011;22383;51.114;13.666;2023-02-12T04:17:08;13.20;;;5.43;;
36353;SDS011;22383;51.114;13.666;2023-02-12T04:30:31;4.45;;;4.05;;
36353;SDS011;22383;51.114;13.666;2023-02-12T04:33:06;4.97;;;4.32;;
36353;SDS011;22383;51.114;13.666;2023-02-12T04:35:43;7.63;;;6.80;;
36353;SDS011;22383;51.114;13.666;2023-02-12T04:41:23;9.60;;;4.30;;
36353;SDS011;22383;51.114;13.666;2023-02-12T04:43:51;33.92;;;6.82;;
36353;SDS011;22383;51.114;13.666;2023-02-12T04:46:18;13.85;;;5.75;;
36353;SDS011;22383;51.114;13.666;2023-02-12T04:48:56;8.48;;;6.88;;
36353;SDS011;22383;51.114;13.666;2023-02-12T04:51:24;9.13;;;4.60;;
36353;SDS011;22383;51.114;13.666;2023-02-12T04:53:51;7.72;;;6.88;;
36353;SDS011;22383;51.114;13.666;2023-02-12T04:56:18;11.35;;;6.90;;
36353;SDS011;22383;51.114;13.666;2023-02-12T04:58:46;13.75;;;6.72;;
36353;SDS011;22383;51.114;13.666;2023-02-12T05:01:13;12.45;;;2.97;;
36353;SDS011;22383;51.114;13.666;2023-02-12T05:03:43;15.45;;;4.97;;
36353;SDS011;22383;51.114;13.666;2023-02-12T05:06:10;11.88;;;7.13;;
36353;SDS011;22383;51.114;13.666;2023-02-12T05:08:37;7.03;;;4.50;;
36353;SDS011;22383;51.114;13.666;2023-02-12T05:11:06;13.32;;;5.88;;
36353;SDS011;22383;51.114;13.666;2023-02-12T05:13:37;7.47;;;6.18;;
36353;SDS011;22383;51.114;13.666;2023-02-12T05:16:08;14.13;;;4.38;;
36353;SDS011;22383;51.114;13.666;2023-02-12T05:18:36;9.13;;;6.00;;
36353;SDS011;22383;51.114;13.666;2023-02-12T05:21:04;31.90;;;7.57;;
36353;SDS011;22383;51.114;13.666;2023-02-12T05:23:32;15.45;;;8.15;;
36353;SDS011;22383;51.114;13.666;2023-02-12T05:26:03;10.45;;;3.85;;
36353;SDS011;22383;51.114;13.666;2023-02-12T05:28:33;9.57;;;5.80;;
36353;SDS011;22383;51.114;13.666;2023-02-12T05:31:04;5.65;;;3.20;;
36353;SDS011;22383;51.114;13.666;2023-02-12T05:33:34;13.05;;;7.03;;
36353;SDS011;22383;51.114;13.666;2023-02-12T05:36:07;8.65;;;7.57;;
36353;SDS011;22383;51.114;13.666;2023-02-12T05:38:41;31.65;;;7.75;;
36353;SDS011;22383;51.114;13.666;2023-02-12T05:41:20;15.30;;;5.82;;
36353;SDS011;22383;51.114;13.666;2023-02-12T05:43:52;6.85;;;3.97;;
36353;SDS011;22383;51.114;13.666;2023-02-12T05:48:49;2.63;;;2.47;;
36353;SDS011;22383;51.114;13.666;2023-02-12T05:51:22;62.95;;;6.57;;
36353;SDS011;22383;51.114;13.666;2023-02-12T05:53:58;7.80;;;4.57;;
36353;SDS011;22383;51.114;13.666;2023-02-12T05:56:33;4.30;;;3.70;;
36353;SDS011;22383;51.114;13.666;2023-02-12T05:59:11;12.10;;;6.72;;
36353;SDS011;22383;51.114;13.666;2023-02-12T06:01:49;62.00;;;7.95;;
36353;SDS011;22383;51.114;13.666;2023-02-12T06:04:21;6.18;;;5.53;;
36353;SDS011;22383;51.114;13.666;2023-02-12T06:06:51;6.05;;;5.47;;
36353;SDS011;22383;51.114;13.666;2023-02-12T06:09:25;6.97;;;4.10;;
36353;SDS011;22383;51.114;13.666;2023-02-12T06:11:52;9.55;;;6.70;;
36353;SDS011;22383;51.114;13.666;2023-02-12T06:14:19;41.88;;;7.35;;
36353;SDS011;22383;51.114;13.666;2023-02-12T06:16:51;6.53;;;4.75;;
36353;SDS011;22383;51.114;13.666;2023-02-12T06:19:21;11.30;;;4.70;;
36353;SDS011;22383;51.114;13.666;2023-02-12T06:21:50;17.02;;;5.40;;
36353;SDS011;22383;51.114;13.666;2023-02-12T06:24:17;9.85;;;4.75;;
36353;SDS011;22383;51.114;13.666;2023-02-12T06:26:48;61.50;;;8.00;;
36353;SDS011;22383;51.114;13.666;2023-02-12T06:29:18;5.13;;;3.72;;
36353;SDS011;22383;51.114;13.666;2023-02-12T06:31:46;9.00;;;4.65;;
36353;SDS011;22383;51.114;13.666;2023-02-12T06:36:45;2.90;;;1.90;;
36353;SDS011;22383;51.114;13.666;2023-02-12T06:39:14;22.90;;;4.88;;
36353;SDS011;22383;51.114;13.666;2023-02-12T06:41:45;9.57;;;3.17;;
36353;SDS011;22383;51.114;13.666;2023-02-12T06:44:13;6.75;;;6.20;;
36353;SDS011;22383;51.114;13.666;2023-02-12T06:46:40;10.02;;;5.15;;
36353;SDS011;22383;51.114;13.666;2023-02-12T06:49:09;10.65;;;4.85;;
36353;SDS011;22383;51.114;13.666;2023-02-12T06:51:38;9.50;;;4.30;;
36353;SDS011;22383;51.114;13.666;2023-02-12T06:54:25;10.65;;;5.40;;
36353;SDS011;22383;51.114;13.666;2023-02-12T06:56:55;6.07;;;4.72;;
36353;SDS011;22383;51.114;13.666;2023-02-12T06:59:22;6.60;;;4.90;;
36353;SDS011;22383;51.114;13.666;2023-02-12T07:01:49;5.68;;;4.07;;
36353;SDS011;22383;51.114;13.666;2023-02-12T07:04:16;3.03;;;2.80;;
36353;SDS011;22383;51.114;13.666;2023-02-12T07:06:44;13.70;;;4.07;;
36353;SDS011;22383;51.114;13.666;2023-02-12T07:09:15;49.75;;;4.50;;
36353;SDS011;22383;51.114;13.666;2023-02-12T07:11:45;9.35;;;6.18;;
36353;SDS011;22383;51.114;13.666;2023-02-12T07:14:16;6.35;;;5.68;;
36353;SDS011;22383;51.114;13.666;2023-02-12T07:16:43;5.05;;;4.68;;
36353;SDS011;22383;51.114;13.666;2023-02-12T07:24:06;3.20;;;3.00;;
36353;SDS011;22383;51.114;13.666;2023-02-12T07:26:33;9.02;;;5.18;;
36353;SDS011;22383;51.114;13.666;2023-02-12T07:29:06;7.88;;;6.60;;
36353;SDS011;22383;51.114;13.666;2023-02-12T07:31:33;6.03;;;3.33;;
36353;SDS011;22383;51.114;13.666;2023-02-12T07:34:01;14.38;;;7.53;;
36353;SDS011;22383;51.114;13.666;2023-02-12T07:36:29;8.52;;;3.85;;
36353;SDS011;22383;51.114;13.666;2023-02-12T07:39:02;5.88;;;5.38;;
36353;SDS011;22383;51.114;13.666;2023-02-12T07:41:33;13.90;;;7.40;;
36353;SDS011;22383;51.114;13.666;2023-02-12T07:44:02;12.10;;;5.20;;
36353;SDS011;22383;51.114;13.666;2023-02-12T07:46:36;14.52;;;6.10;;
36353;SDS011;22383;51.114;13.666;2023-02-12T07:49:16;4.43;;;4.05;;
36353;SDS011;22383;51.114;13.666;2023-02-12T07:51:48;4.57;;;4.15;;
36353;SDS011;22383;51.114;13.666;2023-02-12T07:54:16;10.00;;;4.57;;
36353;SDS011;22383;51.114;13.666;2023-02-12T07:56:46;4.97;;;4.57;;
36353;SDS011;22383;51.114;13.666;2023-02-12T07:59:17;5.22;;;4.72;;
36353;SDS011;22383;51.114;13.666;2023-02-12T08:01:49;5.97;;;4.88;;
36353;SDS011;22383;51.114;13.666;2023-02-12T08:04:18;15.10;;;5.03;;
36353;SDS011;22383;51.114;13.666;2023-02-12T08:06:58;13.82;;;4.32;;
36353;SDS011;22383;51.114;13.666;2023-02-12T08:09:26;3.65;;;3.35;;
36353;SDS011;22383;51.114;13.666;2023-02-12T08:11:57;2.55;;;2.17;;
36353;SDS011;22383;51.114;13.666;2023-02-12T08:14:25;6.15;;;4.72;;
36353;SDS011;22383;51.114;13.666;2023-02-12T08:16:53;1.83;;;1.73;;
36353;SDS011;22383;51.114;13.666;2023-02-12T08:19:28;8.82;;;5.25;;
36353;SDS011;22383;51.114;13.666;2023-02-12T08:21:56;5.13;;;4.63;;
36353;SDS011;22383;51.114;13.666;2023-02-12T08:24:32;7.13;;;5.30;;
36353;SDS011;22383;51.114;13.666;2023-02-12T08:27:00;22.95;;;3.80;;
36353;SDS011;22383;51.114;13.666;2023-02-12T08:29:30;4.47;;;3.25;;
36353;SDS011;22383;51.114;13.666;2023-02-12T08:32:00;5.35;;;4.50;;
36353;SDS011;22383;51.114;13.666;2023-02-12T08:34:30;5.03;;;4.50;;
36353;SDS011;22383;51.114;13.666;2023-02-12T08:37:04;3.22;;;2.92;;
36353;SDS011;22383;51.114;13.666;2023-02-12T08:39:35;7.35;;;6.32;;
36353;SDS011;22383;51.114;13.666;2023-02-12T08:42:05;5.60;;;4.47;;
36353;SDS011;22383;51.114;13.666;2023-02-12T08:44:32;7.95;;;4.35;;
36353;SDS011;22383;51.114;13.666;2023-02-12T08:46:59;4.85;;;3.55;;
36353;SDS011;22383;51.114;13.666;2023-02-12T08:49:27;4.05;;;3.65;;
36353;SDS011;22383;51.114;13.666;2023-02-12T08:51:58;21.20;;;4.82;;
36353;SDS011;22383;51.114;13.666;2023-02-12T08:54:39;12.63;;;3.88;;
36353;SDS011;22383;51.114;13.666;2023-02-12T08:57:15;6.05;;;3.78;;
36353;SDS011;22383;51.114;13.666;2023-02-12T08:59:47;4.57;;;4.13;;
36353;SDS011;22383;51.114;13.666;2023-02-12T09:02:19;5.10;;;4.38;;
36353;SDS011;22383;51.114;13.666;2023-02-12T09:04:47;7.68;;;5.00;;
36353;SDS011;22383;51.114;13.666;2023-02-12T09:07:14;4.28;;;3.35;;
36353;SDS011;22383;51.114;13.666;2023-02-12T09:09:41;8.65;;;4.03;;
36353;SDS011;22383;51.114;13.666;2023-02-12T09:12:11;11.02;;;4.57;;
36353;SDS011;22383;51.114;13.666;2023-02-12T09:14:38;8.80;;;4.32;;
36353;SDS011;22383;51.114;13.666;2023-02-12T09:17:08;14.70;;;3.90;;
36353;SDS011;22383;51.114;13.666;2023-02-12T09:19:52;2.65;;;2.45;;
36353;SDS011;22383;51.114;13.666;2023-02-12T09:22:20;2.67;;;1.92;;
36353;SDS011;22383;51.114;13.666;2023-02-12T09:24:53;9.90;;;5.65;;
36353;SDS011;22383;51.114;13.666;2023-02-12T09:27:20;2.38;;;2.17;;
36353;SDS011;22383;51.114;13.666;2023-02-12T09:29:48;2.58;;;2.38;;
36353;SDS011;22383;51.114;13.666;2023-02-12T09:32:20;12.18;;;3.70;;
36353;SDS011;22383;51.114;13.666;2023-02-12T09:34:47;3.67;;;3.42;;
36353;SDS011;22383;51.114;13.666;2023-02-12T09:37:16;5.40;;;3.88;;
36353;SDS011;22383;51.114;13.666;2023-02-12T09:39:46;3.03;;;2.70;;
36353;SDS011;22383;51.114;13.666;2023-02-12T09:45:21;3.20;;;2.67;;
36353;SDS011;22383;51.114;13.666;2023-02-12T09:48:14;1.33;;;1.33;;
36353;SDS011;22383;51.114;13.666;2023-02-12T09:53:23;3.10;;;1.95;;
36353;SDS011;22383;51.114;13.666;2023-02-12T09:55:56;9.38;;;2.40;;
36353;SDS011;22383;51.114;13.666;2023-02-12T10:01:14;3.67;;;2.65;;
36353;SDS011;22383;51.114;13.666;2023-02-12T10:03:44;1.77;;;1.67;;
36353;SDS011;22383;51.114;13.666;2023-02-12T10:06:14;8.65;;;3.53;;
36353;SDS011;22383;51.114;13.666;2023-02-12T10:08:54;9.90;;;5.63;;
36353;SDS011;22383;51.114;13.666;2023-02-12T10:11:29;15.45;;;2.90;;
36353;SDS011;22383;51.114;13.666;2023-02-12T10:14:25;2.90;;;2.67;;
36353;SDS011;22383;51.114;13.666;2023-02-12T10:25:48;7.10;;;1.77;;
36353;SDS011;22383;51.114;13.666;2023-02-12T10:28:39;2.17;;;1.73;;
36353;SDS011;22383;51.114;13.666;2023-02-12T10:31:14;3.33;;;2.45;;
36353;SDS011;22383;51.114;13.666;2023-02-12T10:33:49;3.85;;;2.92;;
36353;SDS011;22383;51.114;13.666;2023-02-12T10:42:25;3.47;;;2.45;;
36353;SDS011;22383;51.114;13.666;2023-02-12T10:44:28;11.65;;;3.75;;
36353;SDS011;22383;51.114;13.666;2023-02-12T10:46:56;6.13;;;4.05;;
36353;SDS011;22383;51.114;13.666;2023-02-12T10:49:34;3.40;;;3.13;;
36353;SDS011;22383;51.114;13.666;2023-02-12T10:52:03;5.35;;;2.33;;
36353;SDS011;22383;51.114;13.666;2023-02-12T10:54:56;1.48;;;1.38;;
36353;SDS011;22383;51.114;13.666;2023-02-12T10:57:25;6.00;;;4.28;;
36353;SDS011;22383;51.114;13.666;2023-02-12T10:59:56;2.70;;;2.28;;
36353;SDS011;22383;51.114;13.666;2023-02-12T11:02:57;5.38;;;2.05;;
36353;SDS011;22383;51.114;13.666;2023-02-12T11:05:48;10.77;;;5.25;;
36353;SDS011;22383;51.114;13.666;2023-02-12T11:08:29;6.00;;;4.80;;
36353;SDS011;22383;51.114;13.666;2023-02-12T11:13:46;7.07;;;1.77;;
36353;SDS011;22383;51.114;13.666;2023-02-12T11:16:30;2.47;;;2.28;;
36353;SDS011;22383;51.114;13.666;2023-02-12T11:19:06;10.18;;;4.30;;
36353;SDS011;22383;51.114;13.666;2023-02-12T11:21:34;15.35;;;5.55;;
36353;SDS011;22383;51.114;13.666;2023-02-12T11:24:33;6.82;;;2.70;;
36353;SDS011;22383;51.114;13.666;2023-02-12T11:29:41;2.38;;;2.25;;
36353;SDS011;22383;51.114;13.666;2023-02-12T11:32:19;3.45;;;2.95;;
36353;SDS011;22383;51.114;13.666;2023-02-12T11:35:02;4.63;;;2.38;;
36353;SDS011;22383;51.114;13.666;2023-02-12T11:37:39;2.58;;;2.08;;
36353;SDS011;22383;51.114;13.666;2023-02-12T11:40:16;1.98;;;1.25;;
36353;SDS011;22383;51.114;13.666;2023-02-12T11:42:52;4.85;;;2.92;;
36353;SDS011;22383;51.114;13.666;2023-02-12T11:45:29;2.30;;;1.75;;
36353;SDS011;22383;51.114;13.666;2023-02-12T11:48:19;1.38;;;1.27;;
36353;SDS011;22383;51.114;13.666;2023-02-12T11:50:54;14.30;;;2.80;;
36353;SDS011;22383;51.114;13.666;2023-02-12T11:53:31;2.83;;;2.63;;
36353;SDS011;22383;51.114;13.666;2023-02-12T11:56:10;3.53;;;2.05;;
36353;SDS011;22383;51.114;13.666;2023-02-12T11:58:38;2.30;;;1.80;;
36353;SDS011;22383;51.114;13.666;2023-02-12T12:01:13;1.52;;;1.42;;
36353;SDS011;22383;51.114;13.666;2023-02-12T12:06:33;3.53;;;1.42;;
36353;SDS011;22383;51.114;13.666;2023-02-12T12:09:23;1.23;;;1.10;;
36353;SDS011;22383;51.114;13.666;2023-02-12T12:15:16;2.55;;;1.85;;
36353;SDS011;22383;51.114;13.666;2023-02-12T12:24:48;5.68;;;1.23;;
36353;SDS011;22383;51.114;13.666;2023-02-12T12:27:40;3.25;;;2.20;;
36353;SDS011;22383;51.114;13.666;2023-02-12T12:47:09;5.78;;;2.75;;
36353;SDS011;22383;51.114;13.666;2023-02-12T12:49:57;2.70;;;1.75;;
36353;SDS011;22383;51.114;13.666;2023-02-12T13:10:37;0.98;;;0.90;;
36353;SDS011;22383;51.114;13.666;2023-02-12T13:16:10;1.58;;;1.48;;
36353;SDS011;22383;51.114;13.666;2023-02-12T13:19:10;30.45;;;2.85;;
36353;SDS011;22383;51.114;13.666;2023-02-12T13:22:08;1.40;;;1.30;;
36353;SDS011;22383;51.114;13.666;2023-02-12T13:27:53;0.60;;;0.60;;
36353;SDS011;22383;51.114;13.666;2023-02-12T13:30:30;2.47;;;1.25;;
36353;SDS011;22383;51.114;13.666;2023-02-12T13:33:08;3.00;;;2.67;;
36353;SDS011;22383;51.114;13.666;2023-02-12T13:35:42;2.85;;;1.48;;
36353;SDS011;22383;51.114;13.666;2023-02-12T13:38:14;4.57;;;1.85;;
36353;SDS011;22383;51.114;13.666;2023-02-12T13:40:53;23.35;;;1.52;;
36353;SDS011;22383;51.114;13.666;2023-02-12T13:46:16;1.75;;;1.20;;
36353;SDS011;22383;51.114;13.666;2023-02-12T13:51:48;1.20;;;0.95;;
36353;SDS011;22383;51.114;13.666;2023-02-12T13:57:23;1.30;;;1.20;;
36353;SDS011;22383;51.114;13.666;2023-02-12T13:59:50;1.90;;;1.77;;
36353;SDS011;22383;51.114;13.666;2023-02-12T14:02:23;1.63;;;1.00;;
36353;SDS011;22383;51.114;13.666;2023-02-12T14:04:55;3.30;;;1.80;;
36353;SDS011;22383;51.114;13.666;2023-02-12T14:07:42;1.67;;;1.35;;
36353;SDS011;22383;51.114;13.666;2023-02-12T14:12:52;1.15;;;1.15;;
36353;SDS011;22383;51.114;13.666;2023-02-12T14:15:38;7.05;;;2.85;;
36353;SDS011;22383;51.114;13.666;2023-02-12T14:18:25;1.92;;;1.75;;
36353;SDS011;22383;51.114;13.666;2023-02-12T14:23:42;1.65;;;1.55;;
36353;SDS011;22383;51.114;13.666;2023-02-12T14:26:12;1.70;;;1.60;;
36353;SDS011;22383;51.114;13.666;2023-02-12T14:36:44;1.50;;;1.45;;
36353;SDS011;22383;51.114;13.666;2023-02-12T14:44:36;4.35;;;2.28;;
36353;SDS011;22383;51.114;13.666;2023-02-12T14:47:47;1.08;;;1.00;;
36353;SDS011;22383;51.114;13.666;2023-02-12T14:50:07;1.10;;;1.02;;
36353;SDS011;22383;51.114;13.666;2023-02-12T14:53:04;0.57;;;0.57;;
36353;SDS011;22383;51.114;13.666;2023-02-12T14:55:40;1.45;;;1.35;;
36353;SDS011;22383;51.114;13.666;2023-02-12T14:58:22;2.03;;;1.73;;
36353;SDS011;22383;51.114;13.666;2023-02-12T15:00:54;2.05;;;1.95;;
36353;SDS011;22383;51.114;13.666;2023-02-12T15:03:30;5.95;;;2.53;;
36353;SDS011;22383;51.114;13.666;2023-02-12T15:06:06;0.70;;;0.70;;
36353;SDS011;22383;51.114;13.666;2023-02-12T15:08:53;4.72;;;2.05;;
36353;SDS011;22383;51.114;13.666;2023-02-12T15:14:06;1.23;;;1.13;;
36353;SDS011;22383;51.114;13.666;2023-02-12T15:16:51;1.42;;;1.33;;
36353;SDS011;22383;51.114;13.666;2023-02-12T15:22:15;2.22;;;2.05;;
36353;SDS011;22383;51.114;13.666;2023-02-12T15:24:51;1.65;;;1.55;;
36353;SDS011;22383;51.114;13.666;2023-02-12T15:27:19;2.67;;;2.13;;
36353;SDS011;22383;51.114;13.666;2023-02-12T15:29:51;1.45;;;1.35;;
36353;SDS011;22383;51.114;13.666;2023-02-12T15:32:26;0.57;;;0.57;;
36353;SDS011;22383;51.114;13.666;2023-02-12T15:34:55;1.20;;;1.02;;
36353;SDS011;22383;51.114;13.666;2023-02-12T15:37:24;3.88;;;2.05;;
36353;SDS011;22383;51.114;13.666;2023-02-12T15:39:55;10.35;;;2.05;;
36353;SDS011;22383;51.114;13.666;2023-02-12T15:42:32;5.13;;;2.13;;
36353;SDS011;22383;51.114;13.666;2023-02-12T15:45:20;3.03;;;2.65;;
36353;SDS011;22383;51.114;13.666;2023-02-12T15:48:00;9.30;;;3.30;;
36353;SDS011;22383;51.114;13.666;2023-02-12T15:50:44;1.50;;;1.20;;
36353;SDS011;22383;51.114;13.666;2023-02-12T15:53:13;4.05;;;2.65;;
36353;SDS011;22383;51.114;13.666;2023-02-12T15:55:44;2.22;;;1.65;;
36353;SDS011;22383;51.114;13.666;2023-02-12T15:58:20;2.42;;;2.22;;
36353;SDS011;22383;51.114;13.666;2023-02-12T16:00:50;2.20;;;1.80;;
36353;SDS011;22383;51.114;13.666;2023-02-12T16:03:29;5.22;;;2.50;;
36353;SDS011;22383;51.114;13.666;2023-02-12T16:08:52;12.40;;;3.47;;
36353;SDS011;22383;51.114;13.666;2023-02-12T16:11:27;24.85;;;2.72;;
36353;SDS011;22383;51.114;13.666;2023-02-12T16:14:03;2.70;;;1.92;;
36353;SDS011;22383;51.114;13.666;2023-02-12T16:16:50;2.17;;;1.63;;
36353;SDS011;22383;51.114;13.666;2023-02-12T16:19:28;7.47;;;4.15;;
36353;SDS011;22383;51.114;13.666;2023-02-12T16:22:11;1.63;;;1.52;;
36353;SDS011;22383;51.114;13.666;2023-02-12T16:24:46;3.67;;;2.60;;
36353;SDS011;22383;51.114;13.666;2023-02-12T16:29:46;5.40;;;2.42;;
36353;SDS011;22383;51.114;13.666;2023-02-12T16:32:40;3.22;;;2.47;;
36353;SDS011;22383;51.114;13.666;2023-02-12T16:41:13;6.70;;;2.92;;
36353;SDS011;22383;51.114;13.666;2023-02-12T16:43:41;3.33;;;2.83;;
36353;SDS011;22383;51.114;13.666;2023-02-12T16:46:08;1.23;;;1.17;;
36353;SDS011;22383;51.114;13.666;2023-02-12T16:48:41;3.70;;;2.38;;
36353;SDS011;22383;51.114;13.666;2023-02-12T16:51:23;5.20;;;3.60;;
36353;SDS011;22383;51.114;13.666;2023-02-12T16:54:02;5.97;;;3.30;;
36353;SDS011;22383;51.114;13.666;2023-02-12T16:56:33;3.17;;;2.35;;
36353;SDS011;22383;51.114;13.666;2023-02-12T16:59:04;7.20;;;4.80;;
36353;SDS011;22383;51.114;13.666;2023-02-12T17:04:05;2.42;;;2.13;;
36353;SDS011;22383;51.114;13.666;2023-02-12T17:06:34;3.88;;;3.33;;
36353;SDS011;22383;51.114;13.666;2023-02-12T17:09:01;3.70;;;1.73;;
36353;SDS011;22383;51.114;13.666;2023-02-12T17:11:29;4.20;;;2.80;;
36353;SDS011;22383;51.114;13.666;2023-02-12T17:13:59;4.25;;;3.47;;
36353;SDS011;22383;51.114;13.666;2023-02-12T17:16:32;8.75;;;3.38;;
36353;SDS011;22383;51.114;13.666;2023-02-12T17:19:02;1.45;;;1.35;;
36353;SDS011;22383;51.114;13.666;2023-02-12T17:21:39;8.93;;;2.15;;
36353;SDS011;22383;51.114;13.666;2023-02-12T17:24:26;1.38;;;1.27;;
36353;SDS011;22383;51.114;13.666;2023-02-12T17:26:56;19.27;;;4.15;;
36353;SDS011;22383;51.114;13.666;2023-02-12T17:29:29;4.38;;;2.25;;
36353;SDS011;22383;51.114;13.666;2023-02-12T17:32:05;3.03;;;2.78;;
36353;SDS011;22383;51.114;13.666;2023-02-12T17:34:35;2.85;;;2.65;;
36353;SDS011;22383;51.114;13.666;2023-02-12T17:37:15;3.28;;;2.20;;
36353;SDS011;22383;51.114;13.666;2023-02-12T17:39:43;3.80;;;3.25;;
36353;SDS011;22383;51.114;13.666;2023-02-12T17:42:11;3.97;;;1.90;;
36353;SDS011;22383;51.114;13.666;2023-02-12T17:44:38;3.25;;;2.97;;
36353;SDS011;22383;51.114;13.666;2023-02-12T17:47:06;2.80;;;2.08;;
36353;SDS011;22383;51.114;13.666;2023-02-12T17:49:33;3.38;;;3.10;;
36353;SDS011;22383;51.114;13.666;2023-02-12T17:52:06;11.68;;;2.60;;
36353;SDS011;22383;51.114;13.666;2023-02-12T17:54:33;7.20;;;3.35;;
36353;SDS011;22383;51.114;13.666;2023-02-12T17:57:00;7.70;;;3.30;;
36353;SDS011;22383;51.114;13.666;2023-02-12T17:59:28;2.28;;;1.90;;
36353;SDS011;22383;51.114;13.666;2023-02-12T18:01:55;12.43;;;2.58;;
36353;SDS011;22383;51.114;13.666;2023-02-12T18:04:22;2.45;;;2.25;;
36353;SDS011;22383;51.114;13.666;2023-02-12T18:06:50;3.72;;;3.38;;